Wilmington, OH (45177)

12:07 PM EDT on October 21, 2014 (GMT -0400)
Country Manor | Change Station
CLOSE
Current Station
Personal Weather Station
Location: Wilmington, OH
Elevation: 1004 ft
Nearby Weather Stations

Elev 1004 ft 39.44 °N, 83.90 °W | Updated 5 seconds ago

Overcast
Overcast
52.1 °F
Feels Like 52.1 °F
N
4.0
Wind Variable Wind from WNW
Gusts 11.0 mph

Today
High -- | Low -- °F
--% Chance of Precip.
Yesterday
High -- | Low -- °F
Precip. -- in
7:51 AM 6:47 PM
Waning Crescent, 5% visible
Pressure 30.04 in
Visibility 10.0 miles
Clouds Few 2400 ft
Mostly Cloudy 4100 ft
Overcast 5000 ft
Dew Point 43 °F
Humidity 72%
Rainfall 0.00 in
Snow Depth Not available.
UV 1 out of 12
Pollen 1.80 out of 12
Ozone Good
PM2.5 Good
Flu Activity Sporadic
METAR KILN 211554Z AUTO 33013KT 10SM FEW024 BKN041 OVC050 10/05 A3001 RMK AO2 SLP173 T01000050

More Conditions Fewer Conditions

Pressure 30.04 in
Visibility 10.0 miles
Clouds Few 2400 ft
Mostly Cloudy 4100 ft
Overcast 5000 ft
Dew Point 43 °F
Humidity 72%
Rainfall 0.00 in
Snow Depth Not available.
UV 1 out of 12
Pollen 1.80 out of 12
Ozone Good
PM2.5 Good
Flu Activity Sporadic
METAR KILN 211554Z AUTO 33013KT 10SM FEW024 BKN041 OVC050 10/05 A3001 RMK AO2 SLP173 T01000050

More Conditions Fewer Conditions

10-Day Weather Forecast

Almanac

Astronomy

Oct. 21, 2014 Rise Set
Actual Time 7:51 AM EDT 6:47 PM EDT
Civil Twilight 7:24 AM EDT 7:15 PM EDT
Nautical Twilight 6:52 AM EDT 7:46 PM EDT
Astronomical Twilight 6:21 AM EDT 8:17 PM EDT
Moon 5:35 AM EDT 5:40 PM EDT
Length of Visible Light 11h 50m
Length of Day
10h 56m
Tomorrow will be 2m 25s shorter.
Waning Crescent, 5% of the Moon is Illuminated
Today
Waning Crescent
Oct 23
New
Oct 30
First Quarter
Nov 6
Full
Nov 14
Last Quarter

Today's Extremes

State Highs State Lows

Community

WunderPhotos

Upload Photos

1,763,704 photos uploaded!

WunderBlogs® & News

Nearby

Air Quality

  Air Quality AQ Index Pollutant
Yesterday Good
PM2.5
Yesterday Good
OZONE
Current Good
PM2.5
Current Good
OZONE
Tuesday Good
PM2.5
Tuesday Good
OZONE
Wednesday Good
PM2.5
Wednesday Good
OZONE
Thursday Good
PM2.5
Thursday Good
OZONE
Friday Good
PM2.5
Friday Good
OZONE

Snow Depth

Station Depth Elevation
No new snow has been reported.

Earthquake Activity

City Distance Mag. Time & Date
No recent earthquake activity has been reported nearby.
Minimum magnitude displayed is 2.5.

Coastal Water Temperatures

Place Temperature
No Stations Reporting

Nearby Weather Stations